sensor_id;sensor_type;location;lat;lon;timestamp;pressure;altitude;pressure_sealevel;temperature;humidity
79150;BME280;68563;45.644;13.782;2024-01-25T00:01:39;101947.31;;;8.52;73.88
79150;BME280;68563;45.644;13.782;2024-01-25T00:04:04;101949.13;;;8.56;73.94
79150;BME280;68563;45.644;13.782;2024-01-25T00:06:29;101937.88;;;8.53;74.09
79150;BME280;68563;45.644;13.782;2024-01-25T00:08:55;101955.13;;;8.55;74.05
79150;BME280;68563;45.644;13.782;2024-01-25T00:11:20;101943.97;;;8.58;73.98
79150;BME280;68563;45.644;13.782;2024-01-25T00:13:46;101928.47;;;8.58;74.27
79150;BME280;68563;45.644;13.782;2024-01-25T00:16:11;101947.38;;;8.55;74.04
79150;BME280;68563;45.644;13.782;2024-01-25T00:18:36;101933.63;;;8.56;74.16
79150;BME280;68563;45.644;13.782;2024-01-25T00:21:02;101926.81;;;8.61;74.05
79150;BME280;68563;45.644;13.782;2024-01-25T00:23:27;101925.06;;;8.60;73.91
79150;BME280;68563;45.644;13.782;2024-01-25T00:25:53;101909.56;;;8.59;74.19
79150;BME280;68563;45.644;13.782;2024-01-25T00:28:18;101925.97;;;8.61;74.25
79150;BME280;68563;45.644;13.782;2024-01-25T00:30:44;101889.81;;;8.61;74.43
79150;BME280;68563;45.644;13.782;2024-01-25T00:33:09;101897.47;;;8.56;74.96
79150;BME280;68563;45.644;13.782;2024-01-25T00:35:35;101891.38;;;8.51;75.00
79150;BME280;68563;45.644;13.782;2024-01-25T00:38:00;101857.00;;;8.55;75.13
79150;BME280;68563;45.644;13.782;2024-01-25T00:40:26;101849.91;;;8.43;75.59
79150;BME280;68563;45.644;13.782;2024-01-25T00:42:52;101875.69;;;8.40;75.18
79150;BME280;68563;45.644;13.782;2024-01-25T00:45:21;101879.13;;;8.39;75.36
79150;BME280;68563;45.644;13.782;2024-01-25T00:47:47;101900.63;;;8.40;75.61
79150;BME280;68563;45.644;13.782;2024-01-25T00:50:13;101881.63;;;8.36;76.06
79150;BME280;68563;45.644;13.782;2024-01-25T00:52:39;101878.13;;;8.33;76.11
79150;BME280;68563;45.644;13.782;2024-01-25T00:55:05;101896.28;;;8.37;75.96
79150;BME280;68563;45.644;13.782;2024-01-25T00:57:31;101909.16;;;8.36;75.73
79150;BME280;68563;45.644;13.782;2024-01-25T00:59:58;101906.56;;;8.34;75.72
79150;BME280;68563;45.644;13.782;2024-01-25T01:02:23;101911.00;;;8.41;75.50
79150;BME280;68563;45.644;13.782;2024-01-25T01:04:51;101910.94;;;8.38;75.38
79150;BME280;68563;45.644;13.782;2024-01-25T01:07:17;101904.03;;;8.37;75.15
79150;BME280;68563;45.644;13.782;2024-01-25T01:09:42;101917.84;;;8.39;75.28
79150;BME280;68563;45.644;13.782;2024-01-25T01:12:07;101911.75;;;8.36;75.03
79150;BME280;68563;45.644;13.782;2024-01-25T01:14:33;101911.75;;;8.36;75.15
79150;BME280;68563;45.644;13.782;2024-01-25T01:16:58;101918.56;;;8.32;75.38
79150;BME280;68563;45.644;13.782;2024-01-25T01:19:24;101923.78;;;8.35;75.25
79150;BME280;68563;45.644;13.782;2024-01-25T01:21:49;101906.59;;;8.37;75.27
79150;BME280;68563;45.644;13.782;2024-01-25T01:24:15;101912.59;;;8.36;75.16
79150;BME280;68563;45.644;13.782;2024-01-25T01:26:40;101901.41;;;8.34;75.25
79150;BME280;68563;45.644;13.782;2024-01-25T01:29:07;101885.09;;;8.37;75.22
79150;BME280;68563;45.644;13.782;2024-01-25T01:31:33;101885.94;;;8.36;75.27
79150;BME280;68563;45.644;13.782;2024-01-25T01:33:58;101895.47;;;8.40;75.27
79150;BME280;68563;45.644;13.782;2024-01-25T01:36:24;101882.53;;;8.38;75.35
79150;BME280;68563;45.644;13.782;2024-01-25T01:38:49;101855.16;;;8.46;74.97
79150;BME280;68563;45.644;13.782;2024-01-25T01:41:15;101854.06;;;8.34;75.60
79150;BME280;68563;45.644;13.782;2024-01-25T01:43:40;101856.63;;;8.32;75.59
79150;BME280;68563;45.644;13.782;2024-01-25T01:46:10;101851.50;;;8.35;75.29
79150;BME280;68563;45.644;13.782;2024-01-25T01:48:38;101833.34;;;8.29;75.15
79150;BME280;68563;45.644;13.782;2024-01-25T01:51:04;101861.78;;;8.32;75.44
79150;BME280;68563;45.644;13.782;2024-01-25T01:53:30;101887.63;;;8.35;75.13
79150;BME280;68563;45.644;13.782;2024-01-25T01:55:57;101874.72;;;8.35;75.17
79150;BME280;68563;45.644;13.782;2024-01-25T01:58:24;101862.72;;;8.36;75.46
79150;BME280;68563;45.644;13.782;2024-01-25T02:00:50;101866.91;;;8.29;75.65
79150;BME280;68563;45.644;13.782;2024-01-25T02:03:17;101874.72;;;8.35;75.52
79150;BME280;68563;45.644;13.782;2024-01-25T02:05:43;101871.22;;;8.31;75.59
79150;BME280;68563;45.644;13.782;2024-01-25T02:08:09;101866.94;;;8.32;75.74
79150;BME280;68563;45.644;13.782;2024-01-25T02:10:34;101880.75;;;8.34;75.55
79150;BME280;68563;45.644;13.782;2024-01-25T02:12:59;101900.53;;;8.35;75.65
79150;BME280;68563;45.644;13.782;2024-01-25T02:15:25;101891.09;;;8.34;75.74
79150;BME280;68563;45.644;13.782;2024-01-25T02:17:50;101886.72;;;8.31;75.93
79150;BME280;68563;45.644;13.782;2024-01-25T02:20:18;101877.28;;;8.32;75.63
79150;BME280;68563;45.644;13.782;2024-01-25T02:22:43;101884.19;;;8.33;75.64
79150;BME280;68563;45.644;13.782;2024-01-25T02:25:09;101875.56;;;8.33;75.65
79150;BME280;68563;45.644;13.782;2024-01-25T02:27:34;101880.75;;;8.34;75.41
79150;BME280;68563;45.644;13.782;2024-01-25T02:30:05;101849.75;;;8.33;75.23
79150;BME280;68563;45.644;13.782;2024-01-25T02:32:31;101844.63;;;8.34;75.53
79150;BME280;68563;45.644;13.782;2024-01-25T02:34:56;101843.72;;;8.30;75.49
79150;BME280;68563;45.644;13.782;2024-01-25T02:37:21;101856.44;;;8.20;75.65
79150;BME280;68563;45.644;13.782;2024-01-25T02:39:47;101854.69;;;8.19;75.45
79150;BME280;68563;45.644;13.782;2024-01-25T02:42:12;101838.47;;;8.26;75.55
79150;BME280;68563;45.644;13.782;2024-01-25T02:44:39;101870.19;;;8.20;75.07
79150;BME280;68563;45.644;13.782;2024-01-25T02:47:04;101877.94;;;8.19;75.05
79150;BME280;68563;45.644;13.782;2024-01-25T02:49:30;101874.47;;;8.18;74.93
79150;BME280;68563;45.644;13.782;2024-01-25T02:51:55;101870.19;;;8.19;74.90
79150;BME280;68563;45.644;13.782;2024-01-25T02:54:21;101857.25;;;8.17;74.97
79150;BME280;68563;45.644;13.782;2024-01-25T02:56:46;101862.44;;;8.17;75.22
79150;BME280;68563;45.644;13.782;2024-01-25T02:59:11;101850.31;;;8.14;75.06
79150;BME280;68563;45.644;13.782;2024-01-25T03:01:39;101847.84;;;8.21;75.12
79150;BME280;68563;45.644;13.782;2024-01-25T03:04:05;101846.13;;;8.20;75.48
79150;BME280;68563;45.644;13.782;2024-01-25T03:06:30;101854.69;;;8.17;75.56
79150;BME280;68563;45.644;13.782;2024-01-25T03:08:56;101840.03;;;8.16;75.70
79150;BME280;68563;45.644;13.782;2024-01-25T03:11:21;101840.88;;;8.15;75.64
79150;BME280;68563;45.644;13.782;2024-01-25T03:13:47;101823.59;;;8.11;75.70
79150;BME280;68563;45.644;13.782;2024-01-25T03:16:12;101808.25;;;8.19;75.75
79150;BME280;68563;45.644;13.782;2024-01-25T03:18:37;101814.25;;;8.16;76.00
79150;BME280;68563;45.644;13.782;2024-01-25T03:21:03;101825.44;;;8.18;75.99
79150;BME280;68563;45.644;13.782;2024-01-25T03:23:28;101816.00;;;8.19;76.01
79150;BME280;68563;45.644;13.782;2024-01-25T03:25:53;101820.25;;;8.17;76.25
79150;BME280;68563;45.644;13.782;2024-01-25T03:28:19;101828.00;;;8.17;76.26
79150;BME280;68563;45.644;13.782;2024-01-25T03:30:44;101829.75;;;8.18;76.22
79150;BME280;68563;45.644;13.782;2024-01-25T03:33:09;101833.16;;;8.17;76.07
79150;BME280;68563;45.644;13.782;2024-01-25T03:35:35;101837.47;;;8.16;76.02
79150;BME280;68563;45.644;13.782;2024-01-25T03:38:00;101834.72;;;8.07;76.09
79150;BME280;68563;45.644;13.782;2024-01-25T03:40:26;101845.22;;;8.18;75.97
79150;BME280;68563;45.644;13.782;2024-01-25T03:42:51;101822.00;;;8.18;75.98
79150;BME280;68563;45.644;13.782;2024-01-25T03:45:16;101818.59;;;8.20;75.66
79150;BME280;68563;45.644;13.782;2024-01-25T03:47:42;101820.31;;;8.20;75.62
79150;BME280;68563;45.644;13.782;2024-01-25T03:50:08;101800.53;;;8.20;75.53
79150;BME280;68563;45.644;13.782;2024-01-25T03:52:33;101807.44;;;8.21;75.52
79150;BME280;68563;45.644;13.782;2024-01-25T03:54:58;101809.03;;;8.14;75.45
79150;BME280;68563;45.644;13.782;2024-01-25T03:57:24;101821.16;;;8.17;75.60
79150;BME280;68563;45.644;13.782;2024-01-25T03:59:49;101834.06;;;8.19;75.56
79150;BME280;68563;45.644;13.782;2024-01-25T04:02:15;101839.22;;;8.19;75.68
79150;BME280;68563;45.644;13.782;2024-01-25T04:04:40;101841.78;;;8.17;75.70
79150;BME280;68563;45.644;13.782;2024-01-25T04:07:05;101840.97;;;8.20;75.65
79150;BME280;68563;45.644;13.782;2024-01-25T04:09:31;101828.00;;;8.17;76.04
79150;BME280;68563;45.644;13.782;2024-01-25T04:11:56;101831.47;;;8.17;75.88
79150;BME280;68563;45.644;13.782;2024-01-25T04:14:22;101823.75;;;8.19;75.83
79150;BME280;68563;45.644;13.782;2024-01-25T04:16:47;101812.50;;;8.15;76.05
79150;BME280;68563;45.644;13.782;2024-01-25T04:19:12;101811.63;;;8.14;76.28
79150;BME280;68563;45.644;13.782;2024-01-25T04:21:38;101805.66;;;8.17;76.14
79150;BME280;68563;45.644;13.782;2024-01-25T04:24:03;101795.34;;;8.17;76.09
79150;BME280;68563;45.644;13.782;2024-01-25T04:26:29;101805.69;;;8.20;76.10
79150;BME280;68563;45.644;13.782;2024-01-25T04:28:54;101796.19;;;8.18;75.98
79150;BME280;68563;45.644;13.782;2024-01-25T04:31:20;101803.09;;;8.20;76.06
79150;BME280;68563;45.644;13.782;2024-01-25T04:33:45;101806.53;;;8.21;76.08
79150;BME280;68563;45.644;13.782;2024-01-25T04:36:11;101816.84;;;8.18;75.94
79150;BME280;68563;45.644;13.782;2024-01-25T04:38:36;101792.69;;;8.14;76.17
79150;BME280;68563;45.644;13.782;2024-01-25T04:41:02;101783.19;;;8.11;76.35
79150;BME280;68563;45.644;13.782;2024-01-25T04:43:27;101797.84;;;8.12;76.36
79150;BME280;68563;45.644;13.782;2024-01-25T04:45:52;101807.31;;;8.13;76.15
79150;BME280;68563;45.644;13.782;2024-01-25T04:48:18;101820.22;;;8.13;76.44
79150;BME280;68563;45.644;13.782;2024-01-25T04:50:43;101812.50;;;8.17;76.53
79150;BME280;68563;45.644;13.782;2024-01-25T04:53:09;101810.81;;;8.17;76.69
79150;BME280;68563;45.644;13.782;2024-01-25T04:55:34;101814.16;;;8.11;76.56
79150;BME280;68563;45.644;13.782;2024-01-25T04:57:59;101816.81;;;8.16;76.62
79150;BME280;68563;45.644;13.782;2024-01-25T05:00:25;101801.34;;;8.16;76.73
79150;BME280;68563;45.644;13.782;2024-01-25T05:02:50;101806.44;;;8.13;76.67
79150;BME280;68563;45.644;13.782;2024-01-25T05:05:16;101824.47;;;8.11;76.61
79150;BME280;68563;45.644;13.782;2024-01-25T05:07:41;101834.78;;;8.10;76.77
79150;BME280;68563;45.644;13.782;2024-01-25T05:10:07;101836.38;;;8.03;76.74
79150;BME280;68563;45.644;13.782;2024-01-25T05:12:33;101843.31;;;8.07;76.91
79150;BME280;68563;45.644;13.782;2024-01-25T05:14:58;101851.13;;;8.10;76.92
79150;BME280;68563;45.644;13.782;2024-01-25T05:17:24;101850.19;;;8.05;76.88
79150;BME280;68563;45.644;13.782;2024-01-25T05:19:49;101835.66;;;8.12;76.87
79150;BME280;68563;45.644;13.782;2024-01-25T05:22:15;101829.66;;;8.11;76.76
79150;BME280;68563;45.644;13.782;2024-01-25T05:24:40;101811.59;;;8.13;76.71
79150;BME280;68563;45.644;13.782;2024-01-25T05:27:05;101827.91;;;8.10;76.76
79150;BME280;68563;45.644;13.782;2024-01-25T05:29:31;101837.22;;;8.01;76.85
79150;BME280;68563;45.644;13.782;2024-01-25T05:31:56;101824.34;;;8.04;76.79
79150;BME280;68563;45.644;13.782;2024-01-25T05:34:22;101825.22;;;8.04;77.00
79150;BME280;68563;45.644;13.782;2024-01-25T05:36:48;101827.81;;;8.06;76.91
79150;BME280;68563;45.644;13.782;2024-01-25T05:39:13;101831.31;;;8.08;76.99
79150;BME280;68563;45.644;13.782;2024-01-25T05:41:38;101855.28;;;8.04;76.99
79150;BME280;68563;45.644;13.782;2024-01-25T05:44:04;101852.69;;;8.02;77.20
79150;BME280;68563;45.644;13.782;2024-01-25T05:46:30;101839.81;;;8.04;76.89
79150;BME280;68563;45.644;13.782;2024-01-25T05:48:55;101837.28;;;8.05;76.97
79150;BME280;68563;45.644;13.782;2024-01-25T05:51:21;101832.97;;;8.06;76.97
79150;BME280;68563;45.644;13.782;2024-01-25T05:53:46;101820.09;;;8.07;77.17
79150;BME280;68563;45.644;13.782;2024-01-25T05:56:11;101839.13;;;8.12;77.06
79150;BME280;68563;45.644;13.782;2024-01-25T05:58:37;101852.75;;;8.05;76.96
79150;BME280;68563;45.644;13.782;2024-01-25T06:01:02;101847.53;;;8.01;77.32
79150;BME280;68563;45.644;13.782;2024-01-25T06:03:28;101823.66;;;8.12;77.03
79150;BME280;68563;45.644;13.782;2024-01-25T06:05:53;101815.84;;;8.09;77.07
79150;BME280;68563;45.644;13.782;2024-01-25T06:08:19;101830.28;;;7.98;77.80
79150;BME280;68563;45.644;13.782;2024-01-25T06:10:44;101839.69;;;7.94;77.91
79150;BME280;68563;45.644;13.782;2024-01-25T06:13:09;101814.66;;;7.90;77.91
79150;BME280;68563;45.644;13.782;2024-01-25T06:15:35;101825.91;;;7.94;77.89
79150;BME280;68563;45.644;13.782;2024-01-25T06:18:00;101837.09;;;7.93;78.13
79150;BME280;68563;45.644;13.782;2024-01-25T06:20:26;101837.09;;;7.94;78.49
79150;BME280;68563;45.644;13.782;2024-01-25T06:22:51;101801.84;;;7.95;78.97
79150;BME280;68563;45.644;13.782;2024-01-25T06:25:17;101807.03;;;7.96;78.72
79150;BME280;68563;45.644;13.782;2024-01-25T06:27:42;101835.44;;;7.98;78.42
79150;BME280;68563;45.644;13.782;2024-01-25T06:30:08;101838.06;;;8.01;78.51
79150;BME280;68563;45.644;13.782;2024-01-25T06:32:34;101823.50;;;8.05;78.69
79150;BME280;68563;45.644;13.782;2024-01-25T06:34:59;101809.78;;;8.07;79.07
79150;BME280;68563;45.644;13.782;2024-01-25T06:37:25;101824.50;;;8.13;79.17
79150;BME280;68563;45.644;13.782;2024-01-25T06:39:50;101863.09;;;8.05;79.09
79150;BME280;68563;45.644;13.782;2024-01-25T06:42:15;101869.06;;;8.03;79.52
79150;BME280;68563;45.644;13.782;2024-01-25T06:44:41;101860.41;;;8.01;79.45
79150;BME280;68563;45.644;13.782;2024-01-25T06:47:06;101859.59;;;8.03;79.33
79150;BME280;68563;45.644;13.782;2024-01-25T06:49:31;101862.25;;;8.06;79.19
79150;BME280;68563;45.644;13.782;2024-01-25T06:51:57;101863.09;;;8.05;79.10
79150;BME280;68563;45.644;13.782;2024-01-25T06:54:22;101867.41;;;8.06;79.21
79150;BME280;68563;45.644;13.782;2024-01-25T06:56:47;101877.75;;;8.08;79.14
79150;BME280;68563;45.644;13.782;2024-01-25T06:59:13;101871.75;;;8.10;79.17
79150;BME280;68563;45.644;13.782;2024-01-25T07:01:39;101877.78;;;8.11;79.18
79150;BME280;68563;45.644;13.782;2024-01-25T07:04:04;101869.09;;;8.06;79.29
79150;BME280;68563;45.644;13.782;2024-01-25T07:06:30;101892.47;;;8.13;79.20
79150;BME280;68563;45.644;13.782;2024-01-25T07:08:56;101881.25;;;8.11;79.32
79150;BME280;68563;45.644;13.782;2024-01-25T07:11:21;101888.09;;;8.11;79.46
79150;BME280;68563;45.644;13.782;2024-01-25T07:13:47;101874.34;;;8.12;79.57
79150;BME280;68563;45.644;13.782;2024-01-25T07:16:12;101883.94;;;8.18;79.85
79150;BME280;68563;45.644;13.782;2024-01-25T07:18:38;101873.78;;;8.30;80.69
79150;BME280;68563;45.644;13.782;2024-01-25T07:21:03;101886.03;;;8.40;79.50
79150;BME280;68563;45.644;13.782;2024-01-25T07:23:29;101887.63;;;8.34;79.30
79150;BME280;68563;45.644;13.782;2024-01-25T07:25:55;101894.50;;;8.33;79.46
79150;BME280;68563;45.644;13.782;2024-01-25T07:28:20;101882.44;;;8.30;79.66
79150;BME280;68563;45.644;13.782;2024-01-25T07:30:49;101885.84;;;8.29;79.62
79150;BME280;68563;45.644;13.782;2024-01-25T07:33:15;101897.03;;;8.30;79.90
79150;BME280;68563;45.644;13.782;2024-01-25T07:35:41;101886.66;;;8.27;79.66
79150;BME280;68563;45.644;13.782;2024-01-25T07:38:11;101884.13;;;8.30;79.81
79150;BME280;68563;45.644;13.782;2024-01-25T07:40:36;101881.59;;;8.33;79.92
79150;BME280;68563;45.644;13.782;2024-01-25T07:43:02;101879.84;;;8.32;79.81
79150;BME280;68563;45.644;13.782;2024-01-25T07:45:28;101882.47;;;8.34;79.60
79150;BME280;68563;45.644;13.782;2024-01-25T07:47:53;101897.94;;;8.34;79.43
79150;BME280;68563;45.644;13.782;2024-01-25T07:50:19;101897.94;;;8.32;79.40
79150;BME280;68563;45.644;13.782;2024-01-25T07:52:44;101899.56;;;8.27;79.38
79150;BME280;68563;45.644;13.782;2024-01-25T07:55:10;101890.09;;;8.27;79.20
79150;BME280;68563;45.644;13.782;2024-01-25T07:57:35;101889.28;;;8.31;79.03
79150;BME280;68563;45.644;13.782;2024-01-25T08:00:01;101894.44;;;8.30;78.79
79150;BME280;68563;45.644;13.782;2024-01-25T08:02:26;101896.09;;;8.25;79.23
79150;BME280;68563;45.644;13.782;2024-01-25T08:04:52;101889.13;;;8.21;79.17
79150;BME280;68563;45.644;13.782;2024-01-25T08:07:18;101897.75;;;8.23;79.29
79150;BME280;68563;45.644;13.782;2024-01-25T08:09:43;101910.75;;;8.27;79.27
79150;BME280;68563;45.644;13.782;2024-01-25T08:12:09;101911.66;;;8.31;79.14
79150;BME280;68563;45.644;13.782;2024-01-25T08:14:34;101894.50;;;8.33;79.05
79150;BME280;68563;45.644;13.782;2024-01-25T08:17:00;101885.94;;;8.36;78.74
79150;BME280;68563;45.644;13.782;2024-01-25T08:19:25;101911.75;;;8.36;78.64
79150;BME280;68563;45.644;13.782;2024-01-25T08:21:51;101919.44;;;8.33;78.68
79150;BME280;68563;45.644;13.782;2024-01-25T08:24:16;101904.84;;;8.33;78.52
79150;BME280;68563;45.644;13.782;2024-01-25T08:26:42;101923.84;;;8.38;78.48
79150;BME280;68563;45.644;13.782;2024-01-25T08:29:07;101959.16;;;8.41;78.39
79150;BME280;68563;45.644;13.782;2024-01-25T08:31:32;101951.38;;;8.39;78.31
79150;BME280;68563;45.644;13.782;2024-01-25T08:33:58;101922.09;;;8.37;78.33
79150;BME280;68563;45.644;13.782;2024-01-25T08:36:23;101939.31;;;8.38;78.22
79150;BME280;68563;45.644;13.782;2024-01-25T08:38:49;101940.16;;;8.36;78.19
79150;BME280;68563;45.644;13.782;2024-01-25T08:41:15;101940.22;;;8.40;78.02
79150;BME280;68563;45.644;13.782;2024-01-25T08:43:41;101947.00;;;8.35;78.05
79150;BME280;68563;45.644;13.782;2024-01-25T08:46:07;101935.91;;;8.39;78.02
79150;BME280;68563;45.644;13.782;2024-01-25T08:48:33;101951.38;;;8.39;77.95
79150;BME280;68563;45.644;13.782;2024-01-25T08:50:59;101944.41;;;8.34;78.07
79150;BME280;68563;45.644;13.782;2024-01-25T08:53:25;101927.22;;;8.34;78.08
79150;BME280;68563;45.644;13.782;2024-01-25T08:55:53;101931.78;;;8.48;78.02
79150;BME280;68563;45.644;13.782;2024-01-25T08:58:19;101932.50;;;8.43;78.02
79150;BME280;68563;45.644;13.782;2024-01-25T09:00:45;101920.56;;;8.49;78.10
79150;BME280;68563;45.644;13.782;2024-01-25T09:03:10;101935.31;;;8.56;78.17
79150;BME280;68563;45.644;13.782;2024-01-25T09:05:35;101936.06;;;8.49;78.21
79150;BME280;68563;45.644;13.782;2024-01-25T09:08:05;101932.63;;;8.46;78.41
79150;BME280;68563;45.644;13.782;2024-01-25T09:10:30;101943.03;;;8.53;78.28
79150;BME280;68563;45.644;13.782;2024-01-25T09:12:56;101960.19;;;8.51;78.19
79150;BME280;68563;45.644;13.782;2024-01-25T09:15:21;101956.78;;;8.52;78.09
79150;BME280;68563;45.644;13.782;2024-01-25T09:17:46;101942.22;;;8.57;78.13
79150;BME280;68563;45.644;13.782;2024-01-25T09:20:12;101931.03;;;8.56;78.26
79150;BME280;68563;45.644;13.782;2024-01-25T09:22:37;101953.53;;;8.64;78.01
79150;BME280;68563;45.644;13.782;2024-01-25T09:25:04;101948.44;;;8.68;77.84
79150;BME280;68563;45.644;13.782;2024-01-25T09:27:29;101952.78;;;8.71;77.93
79150;BME280;68563;45.644;13.782;2024-01-25T09:29:55;101946.69;;;8.66;77.75
79150;BME280;68563;45.644;13.782;2024-01-25T09:32:20;101965.72;;;8.72;77.63
79150;BME280;68563;45.644;13.782;2024-01-25T09:34:46;101977.81;;;8.76;77.37
79150;BME280;68563;45.644;13.782;2024-01-25T09:37:11;101976.19;;;8.82;77.33
79150;BME280;68563;45.644;13.782;2024-01-25T09:39:36;101978.81;;;8.83;77.14
79150;BME280;68563;45.644;13.782;2024-01-25T09:42:05;101990.06;;;8.88;77.14
79150;BME280;68563;45.644;13.782;2024-01-25T09:44:31;101987.47;;;8.88;76.96
79150;BME280;68563;45.644;13.782;2024-01-25T09:46:57;101990.13;;;8.90;76.95
79150;BME280;68563;45.644;13.782;2024-01-25T09:49:23;102005.63;;;8.91;77.00
79150;BME280;68563;45.644;13.782;2024-01-25T09:51:50;101996.16;;;8.92;76.92
79150;BME280;68563;45.644;13.782;2024-01-25T09:54:16;101992.72;;;8.93;76.76
79150;BME280;68563;45.644;13.782;2024-01-25T09:56:42;101997.13;;;8.97;76.73
79150;BME280;68563;45.644;13.782;2024-01-25T09:59:08;102000.63;;;9.04;76.45
79150;BME280;68563;45.644;13.782;2024-01-25T10:01:34;102002.31;;;9.00;76.57
79150;BME280;68563;45.644;13.782;2024-01-25T10:03:59;102010.91;;;8.99;76.60
79150;BME280;68563;45.644;13.782;2024-01-25T10:06:25;102016.09;;;9.01;76.54
79150;BME280;68563;45.644;13.782;2024-01-25T10:08:52;102024.75;;;9.04;76.82
79150;BME280;68563;45.644;13.782;2024-01-25T10:11:18;102030.81;;;9.06;77.36
79150;BME280;68563;45.644;13.782;2024-01-25T10:13:45;102034.28;;;9.07;77.93
79150;BME280;68563;45.644;13.782;2024-01-25T10:16:12;102030.88;;;9.09;77.92
79150;BME280;68563;45.644;13.782;2024-01-25T10:18:40;102027.41;;;9.09;77.88
79150;BME280;68563;45.644;13.782;2024-01-25T10:21:06;102029.22;;;9.13;77.93
79150;BME280;68563;45.644;13.782;2024-01-25T10:23:31;102023.13;;;9.09;78.22
79150;BME280;68563;45.644;13.782;2024-01-25T10:25:57;102023.16;;;9.11;78.15
79150;BME280;68563;45.644;13.782;2024-01-25T10:28:24;102022.31;;;9.14;78.12
79150;BME280;68563;45.644;13.782;2024-01-25T10:30:50;102012.78;;;9.09;78.15
79150;BME280;68563;45.644;13.782;2024-01-25T10:33:17;102027.50;;;9.15;77.85
79150;BME280;68563;45.644;13.782;2024-01-25T10:35:44;102014.63;;;9.17;78.02
79150;BME280;68563;45.644;13.782;2024-01-25T10:38:19;102006.81;;;9.15;78.14
79150;BME280;68563;45.644;13.782;2024-01-25T10:40:46;101996.50;;;9.15;77.92
79150;BME280;68563;45.644;13.782;2024-01-25T10:43:12;101994.78;;;9.14;77.72
79150;BME280;68563;45.644;13.782;2024-01-25T10:45:37;102012.91;;;9.19;77.80
79150;BME280;68563;45.644;13.782;2024-01-25T10:48:03;102011.06;;;9.12;77.89
79150;BME280;68563;45.644;13.782;2024-01-25T10:50:29;102013.88;;;9.24;77.73
79150;BME280;68563;45.644;13.782;2024-01-25T10:52:55;101997.47;;;9.22;77.76
79150;BME280;68563;45.644;13.782;2024-01-25T10:55:21;102003.53;;;9.24;77.74
79150;BME280;68563;45.644;13.782;2024-01-25T10:57:47;102004.41;;;9.26;77.85
79150;BME280;68563;45.644;13.782;2024-01-25T11:00:14;102000.94;;;9.24;77.70
79150;BME280;68563;45.644;13.782;2024-01-25T11:02:41;102002.72;;;9.28;77.34
79150;BME280;68563;45.644;13.782;2024-01-25T11:05:12;101986.34;;;9.28;77.45
79150;BME280;68563;45.644;13.782;2024-01-25T11:07:42;101996.69;;;9.28;77.91
79150;BME280;68563;45.644;13.782;2024-01-25T11:10:16;101999.28;;;9.29;77.54
79150;BME280;68563;45.644;13.782;2024-01-25T11:12:57;102005.34;;;9.31;77.44
79150;BME280;68563;45.644;13.782;2024-01-25T11:15:36;102006.22;;;9.33;77.13
79150;BME280;68563;45.644;13.782;2024-01-25T11:18:03;102003.72;;;9.38;76.95
79150;BME280;68563;45.644;13.782;2024-01-25T11:20:32;101997.69;;;9.37;76.95
79150;BME280;68563;45.644;13.782;2024-01-25T11:23:03;102000.28;;;9.39;76.70
79150;BME280;68563;45.644;13.782;2024-01-25T11:25:30;101993.38;;;9.39;76.66
79150;BME280;68563;45.644;13.782;2024-01-25T11:27:58;101989.94;;;9.40;76.78
79150;BME280;68563;45.644;13.782;2024-01-25T11:30:25;101991.75;;;9.46;76.99
79150;BME280;68563;45.644;13.782;2024-01-25T11:32:51;101996.00;;;9.42;77.00
79150;BME280;68563;45.644;13.782;2024-01-25T11:35:16;101984.84;;;9.45;76.84
79150;BME280;68563;45.644;13.782;2024-01-25T11:37:45;101983.09;;;9.44;77.15
79150;BME280;68563;45.644;13.782;2024-01-25T11:40:12;101978.81;;;9.45;77.16
79150;BME280;68563;45.644;13.782;2024-01-25T11:42:38;101977.09;;;9.45;77.55
79150;BME280;68563;45.644;13.782;2024-01-25T11:45:08;101979.72;;;9.48;77.60
79150;BME280;68563;45.644;13.782;2024-01-25T11:47:35;101967.66;;;9.49;77.34
79150;BME280;68563;45.644;13.782;2024-01-25T11:50:01;101966.81;;;9.53;77.20
79150;BME280;68563;45.644;13.782;2024-01-25T11:52:27;101957.38;;;9.53;77.19
79150;BME280;68563;45.644;13.782;2024-01-25T11:54:53;101952.22;;;9.56;77.24
79150;BME280;68563;45.644;13.782;2024-01-25T11:57:18;101946.13;;;9.53;76.99
79150;BME280;68563;45.644;13.782;2024-01-25T11:59:44;101948.78;;;9.57;77.01
79150;BME280;68563;45.644;13.782;2024-01-25T12:02:12;101943.59;;;9.54;76.74
79150;BME280;68563;45.644;13.782;2024-01-25T12:04:39;101943.66;;;9.59;76.43
79150;BME280;68563;45.644;13.782;2024-01-25T12:07:04;101948.00;;;9.62;76.19
79150;BME280;68563;45.644;13.782;2024-01-25T12:09:30;101953.16;;;9.63;76.28
79150;BME280;68563;45.644;13.782;2024-01-25T12:11:56;101948.84;;;9.64;75.98
79150;BME280;68563;45.644;13.782;2024-01-25T12:14:23;101955.75;;;9.63;76.08
79150;BME280;68563;45.644;13.782;2024-01-25T12:16:49;101951.44;;;9.62;75.92
79150;BME280;68563;45.644;13.782;2024-01-25T12:19:15;101952.34;;;9.66;75.56
79150;BME280;68563;45.644;13.782;2024-01-25T12:21:44;101951.47;;;9.65;75.15
79150;BME280;68563;45.644;13.782;2024-01-25T12:24:09;101952.31;;;9.63;74.78
79150;BME280;68563;45.644;13.782;2024-01-25T12:26:35;101949.69;;;9.61;74.91
79150;BME280;68563;45.644;13.782;2024-01-25T12:29:01;101942.81;;;9.62;74.94
79150;BME280;68563;45.644;13.782;2024-01-25T12:31:26;101939.38;;;9.64;75.00
79150;BME280;68563;45.644;13.782;2024-01-25T12:33:52;101943.69;;;9.64;74.85
79150;BME280;68563;45.644;13.782;2024-01-25T12:36:17;101947.09;;;9.60;75.13
79150;BME280;68563;45.644;13.782;2024-01-25T12:38:42;101942.81;;;9.63;75.26
79150;BME280;68563;45.644;13.782;2024-01-25T12:41:08;101933.34;;;9.64;74.64
79150;BME280;68563;45.644;13.782;2024-01-25T12:43:33;101942.06;;;9.72;74.30